Language: 


Des rapports , des résumés tant et plus, au choix de chacun....


Données statistiques de la station
Quotidien Rapport Janvier 4, 2017 Unités:  Métrique    Anglais   les deux
« Précédent Jour
Suivant Jour »
Quotidien Hebdomadaire Mensuel Annuel Actuel
  Haut: Bas: Moyen:
Température: 7.7 °C 2.7 °C 5 °C
Pt de rosée: 6.7 °C 1.5 °C 3.2 °C
Humidité: 98 % 72 % 89 %
Vitesse du vent: 21.9 km/h 0.0 km/h 9.1 km/h
Rafales: 1111.8 km/h - -
Vent:- - WNW
Pression: 1024.9 hPa 1018.2 hPa -
Précipitation: 0.5 mm    
Historical Graphs
 
 
Données statistiques pour Janvier 4, 2017
Heure Température Point de rosée Pression Vent Vitesse du vent Refales Humidité Pluie (taux horaire)
00:09 4.6 °C 3.3 °C 1021.9 hPa West 9.3 km/h 17.7 km/h 91 % 0.0 mm
00:19 4.6 °C 3.1 °C 1020.9 hPa West 19.8 km/h 20.6 km/h 90 % 0.0 mm
00:29 4.6 °C 3.1 °C 1020.9 hPa West 10.1 km/h 19.8 km/h 90 % 0.0 mm
00:39 4.6 °C 2.9 °C 1020.9 hPa West 9.7 km/h 19.8 km/h 89 % 0.0 mm
00:49 4.6 °C 2.9 °C 1020.9 hPa WNW 17.7 km/h 18.3 km/h 89 % 0.0 mm
00:59 4.6 °C 2.9 °C 1020.9 hPa West 12.2 km/h 17.7 km/h 89 % 0.0 mm
01:09 4.7 °C 3.1 °C 1020.9 hPa West 10.1 km/h 23.0 km/h 89 % 0.0 mm
01:19 4.6 °C 2.8 °C 1020.9 hPa West 14.3 km/h 23.3 km/h 88 % 0.0 mm
01:29 4.6 °C 2.8 °C 1020.9 hPa West 18.3 km/h 24.5 km/h 88 % 0.0 mm
01:39 4.6 °C 2.8 °C 1020.9 hPa West 19.5 km/h 21.2 km/h 88 % 0.0 mm
01:49 4.6 °C 2.6 °C 1020.9 hPa West 14.0 km/h 24.5 km/h 87 % 0.0 mm
01:59 4.5 °C 2.6 °C 1020.9 hPa West 16.3 km/h 23.8 km/h 87 % 0.0 mm
02:09 4.5 °C 2.6 °C 1020.9 hPa WNW 13.7 km/h 18.3 km/h 87 % 0.0 mm
02:19 4.6 °C 2.6 °C 1020.9 hPa WSW 14.0 km/h 24.8 km/h 87 % 0.0 mm
02:29 4.5 °C 2.4 °C 1020.9 hPa West 7.6 km/h 20.9 km/h 86 % 0.0 mm
02:39 4.5 °C 2.4 °C 1020.9 hPa West 13.0 km/h 20.9 km/h 86 % 0.0 mm
02:59 4.4 °C 2.3 °C 1020.9 hPa WSW 13.7 km/h 21.2 km/h 86 % 0.0 mm
03:09 4.4 °C 2.4 °C 1020.9 hPa West 12.6 km/h 19.5 km/h 87 % 0.0 mm
03:19 4.5 °C 2.6 °C 1019.9 hPa WSW 16.3 km/h 21.9 km/h 87 % 0.0 mm
03:29 4.5 °C 2.6 °C 1019.9 hPa NNW 15.8 km/h 19.5 km/h 87 % 0.0 mm
03:39 4.6 °C 2.6 °C 1019.9 hPa West 12.6 km/h 24.5 km/h 87 % 0.0 mm
03:49 4.6 °C 2.6 °C 1019.9 hPa West 12.2 km/h 20.9 km/h 87 % 0.0 mm
03:59 4.6 °C 2.8 °C 1019.9 hPa WNW 16.6 km/h 24.5 km/h 88 % 0.0 mm
04:09 4.7 °C 2.9 °C 1019.9 hPa West 17.7 km/h 21.2 km/h 88 % 0.0 mm
04:19 4.7 °C 2.9 °C 1019.9 hPa West 17.2 km/h 20.6 km/h 88 % 0.0 mm
04:29 4.8 °C 3.0 °C 1019.9 hPa SSW 9.7 km/h 20.1 km/h 88 % 0.0 mm
04:39 4.8 °C 3.0 °C 1018.8 hPa West 13.0 km/h 16.9 km/h 88 % 0.0 mm
04:49 4.8 °C 3.0 °C 1018.8 hPa West 17.2 km/h 20.1 km/h 88 % 0.0 mm
04:59 4.8 °C 3.0 °C 1018.8 hPa WNW 10.1 km/h 20.1 km/h 88 % 0.0 mm
05:09 4.8 °C 3.2 °C 1018.8 hPa West 10.1 km/h 20.1 km/h 89 % 0.0 mm
05:19 4.8 °C 3.2 °C 1018.8 hPa WSW 16.9 km/h 22.4 km/h 89 % 0.0 mm
05:29 4.8 °C 3.2 °C 1018.8 hPa WSW 13.7 km/h 20.1 km/h 89 % 0.0 mm
05:39 4.9 °C 3.2 °C 1018.8 hPa West 10.1 km/h 20.9 km/h 89 % 0.0 mm
05:49 4.8 °C 3.3 °C 1018.8 hPa WNW 16.3 km/h 17.5 km/h 90 % 0.0 mm
05:59 4.8 °C 3.4 °C 1018.8 hPa West 16.9 km/h 20.3 km/h 91 % 0.0 mm
06:09 4.7 °C 3.5 °C 1018.8 hPa WNW 9.3 km/h 19.1 km/h 92 % 0.0 mm
06:19 4.7 °C 3.7 °C 1018.8 hPa West 17.2 km/h 24.8 km/h 93 % 0.0 mm
06:29 4.6 °C 3.7 °C 1018.8 hPa WSW 6.4 km/h 17.2 km/h 94 % 0.0 mm
06:39 4.5 °C 3.6 °C 1018.8 hPa WNW 16.3 km/h 19.1 km/h 94 % 0.0 mm
06:49 4.5 °C 3.8 °C 1018.8 hPa NNW 11.1 km/h 22.0 km/h 95 % 0.0 mm
06:59 4.6 °C 4.0 °C 1018.8 hPa WNW 16.3 km/h 16.6 km/h 96 % 0.0 mm
07:09 4.6 °C 4.0 °C 1018.8 hPa WSW 9.7 km/h 17.7 km/h 96 % 0.0 mm
07:19 4.6 °C 4.0 °C 1018.8 hPa West 9.7 km/h 20.9 km/h 96 % 0.0 mm
07:29 4.6 °C 4.2 °C 1018.8 hPa West 9.0 km/h 19.5 km/h 97 % 0.0 mm
07:39 4.6 °C 4.2 °C 1018.8 hPa West 9.3 km/h 15.8 km/h 97 % 0.0 mm
07:49 4.6 °C 4.2 °C 1018.8 hPa West 10.5 km/h 17.2 km/h 97 % 0.0 mm
07:59 4.6 °C 4.2 °C 1018.8 hPa West 3.2 km/h 13.0 km/h 97 % 0.0 mm
08:09 4.6 °C 4.3 °C 1018.8 hPa West 4.3 km/h 12.2 km/h 98 % 0.0 mm
08:19 4.6 °C 4.3 °C 1018.8 hPa West 8.7 km/h 13.0 km/h 98 % 0.0 mm
08:29 4.7 °C 4.4 °C 1018.8 hPa West 12.2 km/h 13.0 km/h 98 % 0.0 mm
08:39 4.8 °C 4.5 °C 1018.8 hPa West 5.0 km/h 12.2 km/h 98 % 0.0 mm
08:49 4.9 °C 4.4 °C 1018.8 hPa WSW 6.4 km/h 13.7 km/h 97 % 0.0 mm
08:59 4.9 °C 4.6 °C 1018.8 hPa WNW 8.7 km/h 13.7 km/h 98 % 0.0 mm
09:09 4.9 °C 4.6 °C 1018.2 hPa West 7.6 km/h 12.2 km/h 98 % 0.0 mm
09:19 5.0 °C 4.7 °C 1018.2 hPa West 9.0 km/h 11.3 km/h 98 % 0.0 mm
09:29 5.1 °C 4.8 °C 1018.2 hPa Calm   9.0 km/h 98 % 0.0 mm
09:39 5.4 °C 5.1 °C 1018.8 hPa NNE 6.1 km/h 12.2 km/h 98 % 0.0 mm
09:49 5.7 °C 5.4 °C 1018.8 hPa WNW 4.3 km/h 12.2 km/h 98 % 0.0 mm
09:59 6.1 °C 5.8 °C 1018.8 hPa West 9.0 km/h 15.4 km/h 98 % 0.0 mm
10:19 6.6 °C 6.3 °C 1018.8 hPa NW 7.6 km/h 16.6 km/h 98 % 0.0 mm
10:29 6.8 °C 6.3 °C 1018.8 hPa NW 7.6 km/h 7.6 km/h 97 % 0.0 mm
10:39 6.8 °C 6.4 °C 1018.8 hPa NW 7.6 km/h 7.6 km/h 97 % 0.0 mm
10:49 7.1 °C 6.6 °C 1018.8 hPa NW 5.8 km/h 16.6 km/h 97 % 0.0 mm
10:59 7.2 °C 6.6 °C 1018.8 hPa NNW 5.8 km/h 19.5 km/h 96 % 0.0 mm
11:09 7.3 °C 6.7 °C 1019.9 hPa NNW 8.7 km/h 18.3 km/h 96 % 0.0 mm
11:19 7.3 °C 6.7 °C 1019.9 hPa NW 6.1 km/h 33.8 km/h 96 % 0.0 mm
11:29 7.2 °C 6.6 °C 1019.9 hPa North 3.2 km/h 33.8 km/h 96 % 0.0 mm
11:39 7.3 °C 6.7 °C 1019.9 hPa West 9.3 km/h 12.6 km/h 96 % 0.0 mm
11:49 7.3 °C 6.7 °C 1020.9 hPa West 5.5 km/h 33.1 km/h 96 % 0.0 mm
11:59 7.2 °C 6.6 °C 1020.9 hPa WNW 7.6 km/h 10.5 km/h 96 % 0.0 mm
12:09 6.9 °C 6.4 °C 1019.9 hPa NNE 13.7 km/h 33.8 km/h 96 % 0.0 mm
12:19 6.3 °C 5.2 °C 1020.9 hPa NNW 13.7 km/h 1111.8 km/h 93 % 0.0 mm
12:29 6.1 °C 4.9 °C 1020.9 hPa NNW 11.9 km/h 15.4 km/h 92 % 0.0 mm
12:39 5.9 °C 4.4 °C 1020.9 hPa WNW 9.0 km/h 15.8 km/h 90 % 0.0 mm
12:59 6.2 °C 4.8 °C 1019.9 hPa North 5.8 km/h 14.3 km/h 91 % 0.8 mm
13:49 7.7 °C 4.2 °C 1018.8 hPa WNW 9.7 km/h 20.1 km/h 79 % 0.5 mm
13:59 7.6 °C 3.0 °C 1018.8 hPa North 14.0 km/h 23.0 km/h 73 % 0.0 mm
14:09 7.4 °C 2.7 °C 1019.9 hPa North 15.8 km/h 20.1 km/h 72 % 0.0 mm
14:19 7.7 °C 2.9 °C 1019.9 hPa North 10.5 km/h 33.5 km/h 72 % 0.0 mm
14:29 6.7 °C 2.7 °C 1020.9 hPa North 11.9 km/h 28.8 km/h 76 % 0.0 mm
14:39 6.4 °C 2.6 °C 1020.9 hPa North 12.6 km/h 19.8 km/h 77 % 0.0 mm
14:49 6.3 °C 2.6 °C 1020.9 hPa North 6.4 km/h 20.9 km/h 77 % 0.0 mm
14:59 6.4 °C 3.0 °C 1020.9 hPa North 21.9 km/h 23.8 km/h 79 % 0.0 mm
15:09 6.4 °C 2.6 °C 1020.9 hPa North 17.7 km/h 28.5 km/h 77 % 0.0 mm
15:19 6.4 °C 2.4 °C 1020.9 hPa NNW 5.0 km/h 21.2 km/h 76 % 0.0 mm
15:29 6.4 °C 2.4 °C 1020.9 hPa North 13.0 km/h 20.6 km/h 76 % 0.0 mm
15:39 6.7 °C 2.6 °C 1020.9 hPa NNE 6.4 km/h 19.8 km/h 75 % 0.0 mm
15:49 6.4 °C 2.4 °C 1020.9 hPa WNW 9.7 km/h 18.3 km/h 76 % 0.0 mm
15:59 6.1 °C 2.2 °C 1019.9 hPa North 5.5 km/h 15.4 km/h 76 % 0.0 mm
16:09 5.9 °C 2.2 °C 1020.9 hPa NNW 10.1 km/h 15.4 km/h 77 % 0.0 mm
16:19 5.7 °C 2.3 °C 1020.9 hPa NW 9.0 km/h 14.0 km/h 79 % 0.0 mm
16:29 5.6 °C 2.2 °C 1019.9 hPa WNW 7.9 km/h 17.7 km/h 79 % 0.0 mm
16:39 5.6 °C 2.2 °C 1020.9 hPa NNW 9.3 km/h 16.9 km/h 79 % 0.0 mm
16:49 5.6 °C 2.2 °C 1020.9 hPa NNE 9.7 km/h 16.3 km/h 79 % 0.0 mm
16:59 5.3 °C 1.9 °C 1019.9 hPa NNE 2.6 km/h 10.5 km/h 79 % 0.0 mm
17:09 5.0 °C 1.7 °C 1020.9 hPa North 3.2 km/h 9.0 km/h 79 % 0.0 mm
17:19 4.8 °C 1.7 °C 1020.9 hPa Calm   14.0 km/h 80 % 0.0 mm
17:29 4.8 °C 1.8 °C 1020.9 hPa WNW 7.9 km/h 13.7 km/h 81 % 0.0 mm
17:39 4.6 °C 1.8 °C 1020.9 hPa West 4.3 km/h 12.2 km/h 82 % 0.0 mm
17:59 4.8 °C 2.3 °C 1021.9 hPa NW 6.9 km/h 16.6 km/h 84 % 0.0 mm
18:09 4.7 °C 2.2 °C 1021.9 hPa NNE 2.6 km/h 9.7 km/h 84 % 0.0 mm
18:19 4.6 °C 2.1 °C 1021.9 hPa NNE 6.9 km/h 19.1 km/h 84 % 0.0 mm
18:29 4.7 °C 2.1 °C 1021.9 hPa North 5.8 km/h 19.5 km/h 83 % 0.0 mm
18:39 4.7 °C 1.9 °C 1021.9 hPa NNW 9.7 km/h 14.0 km/h 82 % 0.0 mm
18:49 4.5 °C 1.7 °C 1021.9 hPa NNW 5.5 km/h 10.1 km/h 82 % 0.0 mm
18:59 4.5 °C 2.1 °C 1022.9 hPa North 8.7 km/h 12.6 km/h 84 % 0.0 mm
19:09 4.3 °C 2.0 °C 1022.9 hPa North 9.3 km/h 12.6 km/h 85 % 0.0 mm
19:19 4.2 °C 2.1 °C 1022.9 hPa North 8.7 km/h 11.6 km/h 86 % 0.0 mm
19:29 4.0 °C 2.1 °C 1022.9 hPa WNW 2.1 km/h 9.7 km/h 87 % 0.0 mm
19:39 3.9 °C 2.1 °C 1023.9 hPa WNW 4.0 km/h 7.9 km/h 88 % 0.0 mm
19:49 3.8 °C 2.2 °C 1023.9 hPa Calm   6.9 km/h 89 % 0.0 mm
19:59 3.7 °C 2.1 °C 1022.9 hPa West 5.5 km/h 5.5 km/h 89 % 0.0 mm
20:09 3.6 °C 1.9 °C 1022.9 hPa WNW 4.3 km/h 5.8 km/h 89 % 0.0 mm
20:19 3.4 °C 1.8 °C 1022.9 hPa NNW 3.2 km/h 6.4 km/h 89 % 0.0 mm
20:39 3.6 °C 2.1 °C 1022.9 hPa West 4.3 km/h 12.2 km/h 90 % 0.0 mm
20:49 3.4 °C 1.8 °C 1022.9 hPa NNW 1.4 km/h 7.9 km/h 89 % 0.0 mm
20:59 3.2 °C 1.6 °C 1022.9 hPa WNW 7.6 km/h 7.6 km/h 89 % 0.0 mm
21:09 3.1 °C 1.5 °C 1022.9 hPa WSW 4.0 km/h 10.1 km/h 89 % 0.0 mm
21:19 3.2 °C 1.8 °C 1022.9 hPa West 5.0 km/h 10.8 km/h 90 % 0.0 mm
21:29 3.6 °C 2.4 °C 1023.9 hPa West 4.0 km/h 11.1 km/h 92 % 0.0 mm
21:39 3.9 °C 2.7 °C 1024.9 hPa NNW 9.7 km/h 16.6 km/h 92 % 0.0 mm
21:49 3.9 °C 2.7 °C 1024.9 hPa NW 5.8 km/h 13.7 km/h 92 % 0.0 mm
21:59 3.9 °C 2.7 °C 1024.9 hPa North 6.4 km/h 11.9 km/h 92 % 0.0 mm
22:09 3.7 °C 2.6 °C 1024.9 hPa Calm   7.9 km/h 92 % 0.0 mm
22:19 3.6 °C 2.3 °C 1024.9 hPa WNW 5.0 km/h 8.7 km/h 92 % 0.0 mm
22:29 3.2 °C 2.1 °C 1024.9 hPa NW 4.3 km/h 10.5 km/h 92 % 0.0 mm
22:39 3.1 °C 1.9 °C 1024.9 hPa West 3.2 km/h 6.1 km/h 92 % 0.0 mm
22:49 2.8 °C 1.8 °C 1024.9 hPa Calm   6.4 km/h 93 % 0.0 mm
22:59 2.7 °C 1.6 °C 1024.9 hPa West 5.8 km/h 6.1 km/h 93 % 0.0 mm
23:09 2.7 °C 1.8 °C 1024.9 hPa WNW 4.7 km/h 7.2 km/h 94 % 0.0 mm
23:19 2.7 °C 1.9 °C 1024.9 hPa Calm   6.4 km/h 95 % 0.0 mm
23:29 2.7 °C 1.9 °C 1024.9 hPa West 3.5 km/h 6.4 km/h 95 % 0.0 mm
23:39 2.7 °C 2.2 °C 1024.9 hPa WNW 1.8 km/h 5.8 km/h 96 % 0.0 mm
Le Gheer Warneton
Courtoisie de Weather Underground - 1.5 mb

Mise a jour : 16-12-17 15:46:11
Généré par Cumulus 1.9.4 (1099)